OOCL Utah — VRNR5 — position and weather

sailwx.info

Track history (hours):
 
Tides and Currents Weather Stations Pressure Air Temp Water Temp Dewpoint Dewpoint Depression Visibility Wind Speed Wind Dir Waves Ship Positions

OOCL Utah

Last reported at 2018-Jul-19 12:54 UTC. Time now 2018-Jul-21 17:22 UTC.
Position N 34°58' E 128°49'.

Length 335 m; draft 11.4 m.

Type: Cargo ship. MMSI: 477067900.

Date/timePositionNaut miles runAvg speedWind from/ knotsBaromVisibWave heightAir tempDewpointWater temp
2018-Jul-19 12:54N 34°58' E 128°49'38416.7
2018-Jul-18 13:55N 31°06' E 122°45'819.1
2018-Jul-18 13:30N 31°06' E 122°36'813.7
2018-Jul-18 12:57N 31°06' E 122°27'4 8.8
2018-Jul-18 12:30N 31°06' E 122°23'611.5
2018-Jul-18 12:00N 31°07' E 122°16'714.9
2018-Jul-18 11:30N 31°12' E 122°09'1514.7
2018-Jul-18 10:30N 31°16' E 121°53'713.9
2018-Jul-18 10:00N 31°18' E 121°45'9 0.3
2018-Jul-17 05:07N 31°16' E 121°55'2 9.5
2018-Jul-17 04:55N 31°15' E 121°58'510.7
2018-Jul-17 04:29N 31°14' E 122°03'810.1
2018-Jul-17 03:42N 31°11' E 122°11'310.3
2018-Jul-17 03:23N 31°09' E 122°14'3 8.1
2018-Jul-17 02:59N 31°07' E 122°17'510.8
2018-Jul-17 02:30N 31°06' E 122°23'510.7
2018-Jul-17 02:00N 31°07' E 122°29'612.1
2018-Jul-17 01:30N 31°07' E 122°36'15 0.5
2018-Jul-15 18:34N 30°53' E 122°44'0 0.4
2018-Jul-15 18:30N 30°53' E 122°44'5 8.8
2018-Jul-15 17:58N 30°50' E 122°48'711.7
2018-Jul-15 17:23N 30°45' E 122°53'  
2018-Jul-11 12:25N 34°58' E 128°49'2 4.0
2018-Jul-11 11:57N 34°57' E 128°51'8 6.3
2018-Jul-11 10:46N 34°51' E 128°57'10 9.5
2018-Jul-11 09:41N 34°53' E 129°10'612.6
2018-Jul-11 09:11N 34°54' E 129°17'812.8
2018-Jul-11 08:34N 34°59' E 129°25'112.5
2018-Jul-11 08:29N 34°60' E 129°26'  
Track history (hours):
 
Tides and Currents Weather Stations Pressure Air Temp Water Temp Dewpoint Dewpoint Depression Visibility Wind Speed Wind Dir Waves Ship Positions

OOCL Utah

Last reported at 2018-Jul-19 12:54 UTC. Time now 2018-Jul-21 17:22 UTC.
Position N 34°58' E 128°49'.

Length 335 m; draft 11.4 m.

Type: Cargo ship. MMSI: 477067900.

Date/timePositionNaut miles runAvg speedWind from/ knotsBaromVisibWave heightAir tempDewpointWater temp
2018-Jul-19 12:54N 34°58' E 128°49'38416.7
2018-Jul-18 13:55N 31°06' E 122°45'819.1
2018-Jul-18 13:30N 31°06' E 122°36'813.7
2018-Jul-18 12:57N 31°06' E 122°27'4 8.8
2018-Jul-18 12:30N 31°06' E 122°23'611.5
2018-Jul-18 12:00N 31°07' E 122°16'714.9
2018-Jul-18 11:30N 31°12' E 122°09'1514.7
2018-Jul-18 10:30N 31°16' E 121°53'713.9
2018-Jul-18 10:00N 31°18' E 121°45'9 0.3
2018-Jul-17 05:07N 31°16' E 121°55'2 9.5
2018-Jul-17 04:55N 31°15' E 121°58'510.7
2018-Jul-17 04:29N 31°14' E 122°03'810.1
2018-Jul-17 03:42N 31°11' E 122°11'310.3
2018-Jul-17 03:23N 31°09' E 122°14'3 8.1
2018-Jul-17 02:59N 31°07' E 122°17'510.8
2018-Jul-17 02:30N 31°06' E 122°23'510.7
2018-Jul-17 02:00N 31°07' E 122°29'612.1
2018-Jul-17 01:30N 31°07' E 122°36'15 0.5
2018-Jul-15 18:34N 30°53' E 122°44'0 0.4
2018-Jul-15 18:30N 30°53' E 122°44'5 8.8
2018-Jul-15 17:58N 30°50' E 122°48'711.7
2018-Jul-15 17:23N 30°45' E 122°53'  
2018-Jul-11 12:25N 34°58' E 128°49'2 4.0
2018-Jul-11 11:57N 34°57' E 128°51'8 6.3
2018-Jul-11 10:46N 34°51' E 128°57'10 9.5
2018-Jul-11 09:41N 34°53' E 129°10'612.6
2018-Jul-11 09:11N 34°54' E 129°17'812.8
2018-Jul-11 08:34N 34°59' E 129°25'112.5
2018-Jul-11 08:29N 34°60' E 129°26'  

Dump ship's entire track history